Time;durP1;ratioP1;P1;durP2;ratioP2;P2;SDS_P1;SDS_P2;PMS_P1;PMS_P2;Temp;Humidity;BMP_temperature;BMP_pressure;BME280_temperature;BME280_humidity;BME280_pressure;Samples;Min_cycle;Max_cycle;Signal;HPM_P1;HPM_P2
2021/11/17 02:26:18;;;;;;;30.45;14.40;;;7.80;86.00;;;;;;5135522;27;20050;-83
2021/11/17 02:29:07;;;;;;;34.67;15.35;;;7.80;85.90;;;;;;5102669;27;20019;-83
2021/11/17 02:31:47;;;;;;;33.78;15.48;;;7.80;85.90;;;;;;5085913;27;20505;-82
2021/11/17 02:34:22;;;;;;;35.83;15.68;;;7.80;85.90;;;;;;5116740;27;20129;-82
2021/11/17 02:36:54;;;;;;;34.63;15.27;;;7.80;86.00;;;;;;5100218;27;20394;-82
2021/11/17 02:39:49;;;;;;;31.83;15.35;;;7.80;86.00;;;;;;5116782;27;20070;-82
2021/11/17 02:42:44;;;;;;;30.65;14.93;;;7.80;86.00;;;;;;5099536;27;20110;-82
2021/11/17 02:45:28;;;;;;;32.50;14.93;;;7.80;86.00;;;;;;5083944;27;20383;-83
2021/11/17 02:48:12;;;;;;;28.45;13.98;;;7.80;85.90;;;;;;5116149;27;20032;-83
2021/11/17 02:50:37;;;;;;;31.38;14.85;;;7.80;85.90;;;;;;5116516;27;20065;-83
2021/11/17 02:53:24;;;;;;;31.55;14.90;;;7.80;85.90;;;;;;5116623;27;20022;-83
2021/11/17 02:55:56;;;;;;;29.90;14.00;;;7.90;86.00;;;;;;5116506;27;20501;-83
2021/11/17 02:58:37;;;;;;;37.53;16.42;;;7.90;85.90;;;;;;5116682;28;20023;-83
2021/11/17 03:01:28;;;;;;;27.75;13.90;;;7.90;85.80;;;;;;5100014;27;20171;-83
2021/11/17 03:03:59;;;;;;;35.47;16.00;;;7.90;85.90;;;;;;5116100;28;20114;-83
2021/11/17 03:06:43;;;;;;;31.73;14.80;;;7.90;85.90;;;;;;5116258;28;20478;-83
2021/11/17 03:09:17;;;;;;;31.85;15.43;;;7.90;85.80;;;;;;5134670;28;20027;-83
2021/11/17 03:12:01;;;;;;;32.40;15.07;;;7.80;85.80;;;;;;5136559;27;20030;-83
2021/11/17 03:14:37;;;;;;;34.97;15.88;;;7.80;85.80;;;;;;5120342;27;20041;-83
2021/11/17 03:17:15;;;;;;;32.75;15.25;;;7.80;85.90;;;;;;5103849;27;20030;-83
2021/11/17 03:20:02;;;;;;;33.72;14.93;;;7.80;85.90;;;;;;5103770;27;20034;-82
2021/11/17 03:22:53;;;;;;;35.15;15.48;;;7.80;85.80;;;;;;5120313;27;20482;-83
2021/11/17 03:25:36;;;;;;;30.83;15.10;;;7.80;85.90;;;;;;5103369;27;20068;-82
2021/11/17 03:32:05;;;;;;;33.35;14.57;;;7.80;85.80;;;;;;5138757;27;20053;-82
2021/11/17 03:34:59;;;;;;;33.60;14.90;;;7.80;85.80;;;;;;5120289;27;20032;-83
2021/11/17 03:37:43;;;;;;;34.95;16.10;;;7.80;85.70;;;;;;5120110;27;20076;-83
2021/11/17 03:40:11;;;;;;;;;;;7.80;85.80;;;;;;5120785;27;20035;-83
2021/11/17 03:42:53;;;;;;;27.88;13.70;;;7.80;85.70;;;;;;5119909;27;20385;-83
2021/11/17 03:45:22;;;;;;;32.85;15.02;;;7.80;85.80;;;;;;5102879;27;20023;-83
2021/11/17 03:48:08;;;;;;;32.33;14.75;;;7.80;85.80;;;;;;5119477;27;20068;-83
2021/11/17 03:50:52;;;;;;;32.83;14.95;;;7.80;85.90;;;;;;5119754;27;20031;-83
2021/11/17 03:53:18;;;;;;;37.55;16.50;;;7.80;85.80;;;;;;5119686;27;20534;-83
2021/11/17 03:56:08;;;;;;;34.25;16.00;;;7.80;85.80;;;;;;5119843;27;20019;-83
2021/11/17 03:58:50;;;;;;;31.75;14.35;;;7.80;85.80;;;;;;5103791;27;20161;-83
2021/11/17 04:01:22;;;;;;;29.15;13.98;;;7.80;85.90;;;;;;5102315;27;20019;-83
2021/11/17 04:04:03;;;;;;;31.30;14.65;;;7.80;85.80;;;;;;5102590;27;20019;-83
2021/11/17 04:06:48;;;;;;;33.33;14.63;;;7.80;85.80;;;;;;5119493;27;20031;-82
2021/11/17 04:09:26;;;;;;;31.55;15.32;;;7.90;85.90;;;;;;5119248;27;20509;-83
2021/11/17 04:12:17;;;;;;;31.25;15.85;;;7.90;85.80;;;;;;5119403;27;20054;-83
2021/11/17 04:14:54;;;;;;;29.92;14.52;;;7.80;85.70;;;;;;5103778;27;20091;-83
2021/11/17 04:17:32;;;;;;;31.42;14.20;;;7.80;85.80;;;;;;5102305;27;20475;-82
2021/11/17 04:20:20;;;;;;;32.60;15.23;;;7.80;85.80;;;;;;5102005;27;20084;-83
2021/11/17 04:23:20;;;;;;;29.55;14.50;;;7.80;85.70;;;;;;5102106;27;20066;-83
2021/11/17 04:26:04;;;;;;;27.70;13.43;;;7.90;85.80;;;;;;5104426;27;20031;-83
2021/11/17 04:28:41;;;;;;;27.98;13.52;;;7.90;85.70;;;;;;5119169;27;20030;-83
2021/11/17 04:31:47;;;;;;;32.22;15.23;;;7.90;85.70;;;;;;5118764;27;20087;-83
2021/11/17 04:34:40;;;;;;;32.97;14.80;;;7.90;85.70;;;;;;5092479;27;20111;-83
2021/11/17 04:37:40;;;;;;;30.65;14.02;;;7.90;85.70;;;;;;5101997;27;20023;-82
2021/11/17 04:40:54;;;;;;;32.20;14.85;;;7.90;85.70;;;;;;5118500;27;20457;-83
2021/11/17 04:43:55;;;;;;;33.03;14.32;;;8.00;85.70;;;;;;5101554;27;20020;-82
2021/11/17 04:46:43;;;;;;;28.67;13.15;;;8.00;85.70;;;;;;5087068;27;20038;-83
2021/11/17 04:49:18;;;;;;;30.40;14.32;;;8.00;85.70;;;;;;5118126;27;20043;-83
2021/11/17 04:52:11;;;;;;;30.00;13.82;;;8.00;85.70;;;;;;5101393;27;20019;-82
2021/11/17 04:55:09;;;;;;;31.77;14.50;;;8.00;85.70;;;;;;5119752;27;20049;-82
2021/11/17 04:57:43;;;;;;;29.63;13.38;;;8.00;85.80;;;;;;5117404;27;20292;-83
2021/11/17 05:00:20;;;;;;;31.65;14.32;;;8.00;85.80;;;;;;5136719;27;20033;-83
2021/11/17 05:03:08;;;;;;;29.90;14.25;;;8.00;85.80;;;;;;5118335;27;20035;-83
2021/11/17 05:05:55;;;;;;;29.77;14.43;;;8.00;85.80;;;;;;5118227;27;20391;-83
2021/11/17 05:08:27;;;;;;;29.38;13.68;;;8.00;85.80;;;;;;5085481;27;20033;-81
2021/11/17 05:11:14;;;;;;;28.77;13.98;;;8.10;85.80;;;;;;5118193;27;20382;-82
2021/11/17 05:13:57;;;;;;;31.13;14.65;;;8.00;85.70;;;;;;5101965;27;20023;-83
2021/11/17 05:16:47;;;;;;;31.50;13.93;;;8.00;85.70;;;;;;5101049;27;20046;-83
2021/11/17 05:19:21;;;;;;;35.15;14.52;;;8.00;85.80;;;;;;5100949;27;20019;-82
2021/11/17 05:21:47;;;;;;;30.85;14.40;;;8.00;85.90;;;;;;5117845;27;20042;-82
2021/11/17 05:24:22;;;;;;;31.02;13.82;;;8.00;85.90;;;;;;5117883;27;20019;-82
2021/11/17 05:27:22;;;;;;;30.08;13.52;;;8.00;86.00;;;;;;5100650;27;20558;-82
2021/11/17 05:30:13;;;;;;;29.20;13.48;;;7.90;85.90;;;;;;5117721;27;20035;-83
2021/11/17 05:32:49;;;;;;;30.02;13.75;;;7.90;85.90;;;;;;5100694;27;20063;-82
2021/11/17 05:35:20;;;;;;;32.65;14.38;;;7.90;85.90;;;;;;5099833;27;20367;-82
2021/11/17 05:38:11;;;;;;;32.60;14.52;;;7.90;85.90;;;;;;5117513;27;20023;-82
2021/11/17 05:40:51;;;;;;;33.08;13.88;;;7.90;86.00;;;;;;5102390;27;20071;-83
2021/11/17 05:43:30;;;;;;;33.55;14.48;;;7.90;86.00;;;;;;5117499;27;20027;-83
2021/11/17 05:45:56;;;;;;;33.10;13.48;;;7.90;86.10;;;;;;5117407;27;20054;-82
2021/11/17 05:48:27;;;;;;;32.20;14.00;;;7.90;86.10;;;;;;5117067;27;20082;-81
2021/11/17 05:51:14;;;;;;;29.02;13.60;;;7.90;86.10;;;;;;5117190;27;20076;-83
2021/11/17 05:53:55;;;;;;;34.05;14.65;;;7.90;86.10;;;;;;5117177;27;20076;-76
2021/11/17 05:57:19;;;;;;;31.42;13.70;;;7.90;86.10;;;;;;5116580;27;20110;-77
2021/11/17 06:00:10;;;;;;;32.60;13.88;;;7.90;86.10;;;;;;5100595;27;20399;-76
2021/11/17 06:02:58;;;;;;;33.85;13.63;;;7.90;86.00;;;;;;5116448;27;20058;-76
2021/11/17 06:08:55;;;;;;;29.88;14.13;;;8.00;86.00;;;;;;5135136;27;20452;-77
2021/11/17 06:11:35;;;;;;;30.67;13.85;;;7.90;85.90;;;;;;5116347;27;20380;-76
2021/11/17 06:14:03;;;;;;;35.97;15.10;;;8.00;86.00;;;;;;5116248;27;20031;-76
2021/11/17 06:16:29;;;;;;;32.38;14.82;;;8.00;86.00;;;;;;5134754;27;20023;-76
2021/11/17 06:18:55;;;;;;;33.88;15.00;;;8.00;86.00;;;;;;5116181;27;20412;-77
2021/11/17 06:21:22;;;;;;;31.70;14.15;;;8.00;86.00;;;;;;5134956;27;20468;-76
2021/11/17 06:23:52;;;;;;;33.28;13.85;;;8.00;86.00;;;;;;5116096;27;20038;-76
2021/11/17 06:26:23;;;;;;;28.52;13.82;;;8.00;86.00;;;;;;5116331;27;20019;-76
2021/11/17 06:28:55;;;;;;;28.63;13.27;;;8.10;86.00;;;;;;5115841;27;20046;-76
2021/11/17 06:31:23;;;;;;;29.17;13.75;;;8.10;86.00;;;;;;5115959;27;20023;-77
2021/11/17 06:33:49;;;;;;;30.83;13.43;;;8.10;86.00;;;;;;5116015;27;20019;-78
2021/11/17 06:36:16;;;;;;;27.20;13.50;;;8.10;85.90;;;;;;5115955;27;20019;-76
2021/11/17 06:38:41;;;;;;;28.45;12.45;;;8.10;85.90;;;;;;5115735;27;20355;-77
2021/11/17 06:41:07;;;;;;;31.80;13.77;;;8.10;85.90;;;;;;5115852;27;20075;-76
2021/11/17 06:43:33;;;;;;;29.85;13.23;;;8.10;85.90;;;;;;5115852;27;20156;-76
2021/11/17 06:45:59;;;;;;;27.90;13.70;;;8.10;85.90;;;;;;5134115;27;20019;-76
2021/11/17 06:48:30;;;;;;;30.10;13.57;;;8.20;86.00;;;;;;5115643;27;20078;-76
2021/11/17 06:50:58;;;;;;;34.30;14.75;;;8.20;85.90;;;;;;5115682;27;20110;-76
2021/11/17 06:53:26;;;;;;;31.30;14.30;;;8.20;85.90;;;;;;5090997;28;20535;-76
2021/11/17 06:55:53;;;;;;;33.42;14.13;;;8.20;85.90;;;;;;5074148;28;20480;-76
2021/11/17 06:58:19;;;;;;;33.03;14.27;;;8.20;85.90;;;;;;5074175;28;20119;-77
2021/11/17 07:01:13;;;;;;;31.60;13.68;;;8.20;86.00;;;;;;5074118;28;20407;-75
2021/11/17 07:03:39;;;;;;;30.98;13.48;;;8.20;86.00;;;;;;5073999;28;20037;-75
2021/11/17 07:06:05;;;;;;;29.92;14.00;;;8.20;86.00;;;;;;5073917;28;20032;-76
2021/11/17 07:08:31;;;;;;;33.92;14.60;;;8.20;86.00;;;;;;5073954;28;20555;-75
2021/11/17 07:10:56;;;;;;;33.17;14.27;;;8.20;86.00;;;;;;5073906;28;20165;-75
2021/11/17 07:13:22;;;;;;;28.67;13.45;;;8.20;86.00;;;;;;5074009;28;20177;-76
2021/11/17 07:15:48;;;;;;;31.08;14.23;;;8.20;86.00;;;;;;5073914;28;20104;-77
2021/11/17 07:18:14;;;;;;;31.83;13.82;;;8.20;86.00;;;;;;5073784;28;20039;-76
2021/11/17 07:20:40;;;;;;;30.58;13.57;;;8.20;86.00;;;;;;5073948;28;20028;-75
2021/11/17 07:23:07;;;;;;;27.45;12.52;;;8.20;86.00;;;;;;5073906;28;20024;-77
2021/11/17 07:25:36;;;;;;;31.08;14.00;;;8.20;86.00;;;;;;5114573;28;20031;-76
2021/11/17 07:28:02;;;;;;;31.48;14.20;;;8.20;86.10;;;;;;5115419;28;20507;-76
2021/11/17 07:30:33;;;;;;;26.88;13.43;;;8.20;86.10;;;;;;5115313;28;20475;-76
2021/11/17 07:33:02;;;;;;;32.13;13.20;;;8.20;86.00;;;;;;5115431;28;20023;-76
2021/11/17 07:35:28;;;;;;;29.40;13.95;;;8.20;86.00;;;;;;5115220;28;20023;-75
2021/11/17 07:38:00;;;;;;;31.45;14.30;;;8.30;86.10;;;;;;5115534;28;20026;-76
2021/11/17 07:40:27;;;;;;;30.90;13.73;;;8.30;86.10;;;;;;5113219;28;20493;-75
2021/11/17 07:42:55;;;;;;;32.95;14.43;;;8.30;86.10;;;;;;5115038;28;20019;-77
2021/11/17 07:45:22;;;;;;;30.77;13.88;;;8.30;86.10;;;;;;5115176;28;20027;-77
2021/11/17 07:47:48;;;;;;;32.22;14.93;;;8.30;86.10;;;;;;5114891;28;20019;-76
2021/11/17 07:50:14;;;;;;;29.83;14.27;;;8.30;86.10;;;;;;5115166;28;20483;-76
2021/11/17 07:52:40;;;;;;;30.88;14.18;;;8.30;86.10;;;;;;5115250;28;20039;-76
2021/11/17 07:58:33;;;;;;;33.17;14.65;;;8.30;86.20;;;;;;5136563;27;20080;-76
2021/11/17 08:01:00;;;;;;;34.35;14.68;;;8.40;86.20;;;;;;5116095;27;20049;-77
2021/11/17 08:03:30;;;;;;;35.30;15.35;;;8.30;86.20;;;;;;5119240;27;20027;-76
2021/11/17 08:05:57;;;;;;;39.03;16.42;;;8.30;86.20;;;;;;5119275;27;20118;-76
2021/11/17 08:11:45;;;;;;;41.80;16.35;;;8.30;86.40;;;;;;5137614;27;20038;-76
2021/11/17 08:14:12;;;;;;;38.63;16.02;;;8.40;86.40;;;;;;5118811;27;20021;-75
2021/11/17 08:16:38;;;;;;;35.53;15.55;;;8.40;86.40;;;;;;5094168;28;20032;-75
2021/11/17 08:19:04;;;;;;;39.28;17.48;;;8.40;86.50;;;;;;5076942;28;20097;-76
2021/11/17 08:21:30;;;;;;;38.38;15.95;;;8.50;86.50;;;;;;5076925;28;20028;-77
2021/11/17 08:23:56;;;;;;;39.45;17.58;;;8.50;86.40;;;;;;5076941;28;20114;-75
2021/11/17 08:26:22;;;;;;;36.92;16.35;;;8.50;86.40;;;;;;5077067;28;20538;-76
2021/11/17 08:28:49;;;;;;;39.38;17.15;;;8.60;86.40;;;;;;5093861;28;20032;-76
2021/11/17 08:31:16;;;;;;;42.67;18.60;;;8.60;87.10;;;;;;5093744;28;20069;-76
2021/11/17 08:34:12;;;;;;;43.35;18.33;;;8.60;86.50;;;;;;5076896;28;20032;-76
2021/11/17 08:36:38;;;;;;;37.83;16.67;;;8.60;86.50;;;;;;5093719;28;20039;-76
2021/11/17 08:39:04;;;;;;;44.28;18.45;;;8.60;86.50;;;;;;5076778;28;20091;-76
2021/11/17 08:41:30;;;;;;;41.60;17.65;;;8.60;87.20;;;;;;5076458;28;20032;-77
2021/11/17 08:43:56;;;;;;;47.70;19.58;;;8.60;86.60;;;;;;5076487;28;20034;-76
2021/11/17 08:46:22;;;;;;;40.45;17.55;;;8.60;86.70;;;;;;5076432;28;20450;-76
2021/11/17 08:48:48;;;;;;;42.60;18.83;;;8.60;86.80;;;;;;5114717;27;20039;-77
2021/11/17 08:51:18;;;;;;;51.42;20.27;;;8.60;86.90;;;;;;5117666;27;20110;-76
2021/11/17 08:53:46;;;;;;;47.78;18.67;;;8.70;87.00;;;;;;5118027;27;20471;-75
2021/11/17 08:56:12;;;;;;;44.67;18.85;;;8.70;87.00;;;;;;5117998;27;20015;-76
2021/11/17 08:58:40;;;;;;;43.22;17.88;;;8.80;87.00;;;;;;5114828;27;20580;-76
2021/11/17 09:01:06;;;;;;;40.30;16.90;;;8.80;87.00;;;;;;5117635;27;20474;-75
2021/11/17 09:03:33;;;;;;;36.33;16.02;;;8.80;86.80;;;;;;5117605;27;20038;-74
2021/11/17 09:06:00;;;;;;;41.47;16.35;;;8.90;86.80;;;;;;5114860;27;20483;-74
2021/11/17 09:08:28;;;;;;;36.35;15.82;;;9.00;86.70;;;;;;5114077;28;20391;-74
2021/11/17 09:11:01;;;;;;;39.70;16.58;;;9.00;86.60;;;;;;5117336;27;20027;-75
2021/11/17 09:13:27;;;;;;;37.70;16.13;;;9.00;86.60;;;;;;5114904;27;20046;-73
2021/11/17 09:16:40;;;;;;;45.00;17.45;;;9.00;86.60;;;;;;5118023;27;20072;-74
2021/11/17 09:19:07;;;;;;;38.45;15.43;;;9.00;86.70;;;;;;5117352;27;20031;-75
2021/11/17 09:21:36;;;;;;;40.22;17.25;;;8.90;86.70;;;;;;5117316;27;20039;-76
2021/11/17 09:24:02;;;;;;;46.97;19.02;;;8.90;86.80;;;;;;5117353;27;20030;-76
2021/11/17 09:26:28;;;;;;;47.33;18.95;;;8.90;86.90;;;;;;5117447;27;20023;-74
2021/11/17 09:32:16;;;;;;;48.83;19.88;;;8.90;87.20;;;;;;5136020;27;20084;-76
2021/11/17 09:34:42;;;;;;;47.42;19.38;;;8.90;87.30;;;;;;5114317;27;20035;-76
2021/11/17 09:37:09;;;;;;;45.83;20.05;;;8.90;87.30;;;;;;5117432;27;20047;-76
2021/11/17 09:39:36;;;;;;;49.65;20.48;;;9.00;87.40;;;;;;5117053;27;20023;-74
2021/11/17 09:42:04;;;;;;;50.22;20.10;;;9.00;87.50;;;;;;5114109;27;20037;-77
2021/11/17 09:44:36;;;;;;;50.55;20.33;;;9.00;87.70;;;;;;5135153;27;20023;-76
2021/11/17 09:47:05;;;;;;;55.15;21.48;;;9.00;87.80;;;;;;5116902;27;20019;-75
2021/11/17 09:49:41;;;;;;;50.72;21.52;;;9.00;87.80;;;;;;5098367;28;20983;-78
2021/11/17 09:52:12;;;;;;;51.75;22.25;;;9.00;87.90;;;;;;5093000;28;20115;-76
2021/11/17 09:54:38;;;;;;;46.47;18.65;;;9.00;88.00;;;;;;5093315;28;20024;-75
2021/11/17 09:57:13;;;;;;;40.03;18.88;;;9.00;88.10;;;;;;5092999;28;20039;-77
2021/11/17 10:03:16;;;;;;;43.80;18.85;;;9.10;88.30;;;;;;5094459;28;20073;-73
2021/11/17 10:14:55;;;;;;;36.78;16.35;;;9.10;88.50;;;;;;5094111;28;20119;-74
2021/11/17 10:17:33;;;;;;;39.47;18.20;;;9.10;88.50;;;;;;5075639;28;20032;-73
2021/11/17 10:20:31;;;;;;;41.30;18.70;;;9.20;88.50;;;;;;5093624;28;20036;-74
2021/11/17 10:23:06;;;;;;;43.97;18.65;;;9.20;88.60;;;;;;5037999;28;20561;-74
2021/11/17 10:25:44;;;;;;;48.33;21.35;;;9.20;88.70;;;;;;5075517;28;20122;-75
2021/11/17 10:28:10;;;;;;;48.60;19.85;;;9.20;88.80;;;;;;5075034;28;20042;-75
2021/11/17 10:31:04;;;;;;;51.35;20.48;;;9.20;88.80;;;;;;5075340;28;20038;-75
2021/11/17 10:33:49;;;;;;;48.92;20.63;;;9.30;89.00;;;;;;5075459;28;20034;-74
2021/11/17 10:36:20;;;;;;;58.28;23.50;;;9.30;89.00;;;;;;5076926;28;20119;-76
2021/11/17 10:38:50;;;;;;;50.97;22.55;;;9.30;89.20;;;;;;5093512;28;20024;-75
2021/11/17 10:41:29;;;;;;;52.63;20.95;;;9.30;89.30;;;;;;5075341;28;20037;-75
2021/11/17 10:43:58;;;;;;;54.05;23.45;;;9.30;89.30;;;;;;5075312;28;20032;-75
2021/11/17 10:46:53;;;;;;;56.00;22.90;;;9.40;89.40;;;;;;5074974;28;20035;-74
2021/11/17 10:49:28;;;;;;;48.63;21.48;;;9.40;89.40;;;;;;5080179;28;20047;-74
2021/11/17 10:52:01;;;;;;;50.35;22.10;;;9.50;89.40;;;;;;5095400;28;20031;-73
2021/11/17 10:54:30;;;;;;;52.85;23.70;;;9.50;89.50;;;;;;5095323;28;20016;-74
2021/11/17 10:57:09;;;;;;;55.85;22.73;;;9.50;89.50;;;;;;5095316;28;20031;-75
2021/11/17 10:59:35;;;;;;;57.72;24.30;;;9.50;89.60;;;;;;5095458;28;20125;-74
2021/11/17 11:02:04;;;;;;;63.10;24.20;;;9.60;89.60;;;;;;5095347;28;20031;-75
2021/11/17 11:08:01;;;;;;;62.17;23.88;;;9.60;89.70;;;;;;5113968;28;20493;-73
2021/11/17 11:10:44;;;;;;;56.20;23.15;;;9.70;89.80;;;;;;5095010;28;20020;-73
2021/11/17 11:13:20;;;;;;;60.78;23.67;;;9.70;89.70;;;;;;5092772;28;20180;-73
2021/11/17 11:15:50;;;;;;;51.70;22.98;;;9.80;89.70;;;;;;5095218;28;20024;-74
2021/11/17 11:18:23;;;;;;;57.10;23.60;;;9.80;89.70;;;;;;5113614;28;20482;-74
2021/11/17 11:21:14;;;;;;;55.85;23.35;;;9.80;89.80;;;;;;5113558;28;20027;-73
2021/11/17 11:24:20;;;;;;;62.95;25.15;;;9.90;89.70;;;;;;5094192;28;20458;-74
2021/11/17 11:30:08;;;;;;;51.92;22.83;;;10.10;89.80;;;;;;5113647;28;20039;-72
2021/11/17 11:32:33;;;;;;;55.78;23.05;;;10.10;89.70;;;;;;5096787;28;20031;-75
2021/11/17 11:34:59;;;;;;;54.00;23.10;;;10.20;89.70;;;;;;5099420;28;20061;-72
2021/11/17 11:37:24;;;;;;;52.28;23.10;;;10.30;89.70;;;;;;5099166;28;20032;-74
2021/11/17 11:40:02;;;;;;;50.10;22.17;;;10.30;89.60;;;;;;5117694;28;20487;-75
2021/11/17 11:42:32;;;;;;;55.15;23.17;;;10.40;89.60;;;;;;5099255;28;20027;-74
2021/11/17 11:45:10;;;;;;;52.92;22.80;;;10.40;89.50;;;;;;5099095;28;20016;-76
2021/11/17 11:51:35;;;;;;;49.35;21.90;;;10.50;89.60;;;;;;5114949;28;20042;-74
2021/11/17 11:54:25;;;;;;;48.65;21.30;;;10.50;89.50;;;;;;5099023;28;20070;-72
2021/11/17 11:57:32;;;;;;;46.65;20.52;;;10.60;89.50;;;;;;5099458;28;20042;-74
2021/11/17 12:00:16;;;;;;;49.30;21.92;;;10.60;89.40;;;;;;5098829;28;20065;-75
2021/11/17 12:03:08;;;;;;;47.90;20.13;;;10.60;89.40;;;;;;5098758;28;20039;-74
2021/11/17 12:05:38;;;;;;;49.50;22.45;;;10.60;89.50;;;;;;5117258;28;20032;-76
2021/11/17 12:08:24;;;;;;;45.92;20.90;;;10.70;89.70;;;;;;5117190;28;20024;-75
2021/11/17 12:11:04;;;;;;;40.38;19.90;;;10.80;89.70;;;;;;5099015;28;20038;-75
2021/11/17 12:13:33;;;;;;;37.17;19.40;;;10.90;89.60;;;;;;5098824;28;20127;-74
2021/11/17 12:16:16;;;;;;;40.95;19.65;;;10.90;89.40;;;;;;5098452;28;20024;-73
2021/11/17 12:19:01;;;;;;;42.13;18.10;;;11.00;89.40;;;;;;5116466;28;20076;-71
2021/11/17 12:21:39;;;;;;;42.05;19.35;;;11.00;89.50;;;;;;5098242;28;20353;-72
2021/11/17 12:24:25;;;;;;;38.30;18.65;;;11.00;89.50;;;;;;5098103;28;20126;-72
2021/11/17 12:27:02;;;;;;;39.05;18.08;;;11.10;89.40;;;;;;5116483;28;20112;-71
2021/11/17 12:29:48;;;;;;;36.38;17.15;;;11.20;89.40;;;;;;5097890;28;20118;-73
2021/11/17 12:32:14;;;;;;;35.58;19.20;;;11.30;89.40;;;;;;5097385;28;20096;-72
2021/11/17 12:34:52;;;;;;;37.05;18.25;;;11.30;89.30;;;;;;5097487;28;20028;-73
2021/11/17 12:37:45;;;;;;;37.97;19.17;;;11.30;89.30;;;;;;5097364;28;20023;-72
2021/11/17 12:40:32;;;;;;;30.30;15.88;;;11.30;89.40;;;;;;5097324;28;20135;-71
2021/11/17 12:43:00;;;;;;;32.58;16.52;;;11.30;89.30;;;;;;5115980;28;20038;-72
2021/11/17 12:45:31;;;;;;;34.88;16.58;;;11.40;89.90;;;;;;5097703;28;20077;-74
2021/11/17 12:48:11;;;;;;;31.70;17.17;;;11.40;89.40;;;;;;5097682;28;20422;-72
2021/11/17 12:50:52;;;;;;;33.42;15.75;;;11.40;89.40;;;;;;5097440;28;20039;-72
2021/11/17 12:56:49;;;;;;;29.60;15.13;;;11.50;89.30;;;;;;5116236;28;20026;-74
2021/11/17 12:59:20;;;;;;;32.50;15.82;;;11.50;89.30;;;;;;5097647;28;20096;-75
2021/11/17 13:02:00;;;;;;;31.67;15.32;;;11.40;89.20;;;;;;5097494;28;20046;-73
2021/11/17 13:04:37;;;;;;;28.25;15.65;;;11.50;89.30;;;;;;5112720;28;20047;-73
2021/11/17 13:07:07;;;;;;;31.48;15.07;;;11.50;89.40;;;;;;5097695;28;20540;-73
2021/11/17 13:09:55;;;;;;;32.13;15.63;;;11.50;89.40;;;;;;5115580;28;20027;-75
2021/11/17 13:12:28;;;;;;;27.83;14.13;;;11.40;89.30;;;;;;5097514;28;20023;-73
2021/11/17 13:15:10;;;;;;;29.17;14.93;;;11.40;89.30;;;;;;5097161;28;20027;-75
2021/11/17 13:17:45;;;;;;;28.55;15.35;;;11.50;89.40;;;;;;5097391;28;20525;-75
2021/11/17 13:21:02;;;;;;;30.10;15.35;;;11.60;89.30;;;;;;5097086;28;20033;-74
2021/11/17 13:23:33;;;;;;;27.83;15.73;;;11.70;89.10;;;;;;5096903;28;20565;-74
2021/11/17 13:26:24;;;;;;;28.73;15.35;;;11.80;89.00;;;;;;5097112;28;20024;-74
2021/11/17 13:28:52;;;;;;;29.08;15.45;;;11.90;88.90;;;;;;5096849;28;20034;-73
2021/11/17 13:31:39;;;;;;;28.40;16.30;;;12.00;88.80;;;;;;5096734;28;20487;-75
2021/11/17 13:37:36;;;;;;;25.73;13.30;;;12.20;88.50;;;;;;5115113;28;20140;-73
2021/11/17 13:40:11;;;;;;;25.23;14.13;;;12.30;88.20;;;;;;5096742;28;20027;-76
2021/11/17 13:42:38;;;;;;;22.48;12.45;;;12.50;88.80;;;;;;5114976;28;20085;-75
2021/11/17 13:48:31;;;;;;;24.30;12.38;;;12.70;87.90;;;;;;5114875;28;20027;-76
2021/11/17 13:50:57;;;;;;;21.42;11.48;;;12.70;87.70;;;;;;5114669;28;20031;-77
2021/11/17 13:53:24;;;;;;;18.17;11.02;;;12.80;87.70;;;;;;5096678;28;20027;-76
2021/11/17 13:59:13;;;;;;;21.13;10.23;;;13.00;87.40;;;;;;5115010;28;20057;-76
2021/11/17 14:01:39;;;;;;;18.90;10.43;;;13.10;87.20;;;;;;5114596;28;20546;-76
2021/11/17 14:04:05;;;;;;;19.90;10.73;;;13.20;87.10;;;;;;5096259;28;20139;-77
2021/11/17 14:09:53;;;;;;;12.48;4.45;;;13.40;86.70;;;;;;5114731;28;20407;-76
2021/11/17 14:12:21;;;;;;;12.77;4.18;;;13.40;84.60;;;;;;5096018;28;20032;-77
2021/11/17 14:14:48;;;;;;;17.58;3.80;;;13.30;84.00;;;;;;5096048;28;20125;-76
2021/11/17 14:17:13;;;;;;;17.15;3.28;;;13.30;83.50;;;;;;5096120;28;20485;-77
2021/11/17 14:19:39;;;;;;;13.23;2.90;;;13.20;82.80;;;;;;5095835;28;20113;-77
2021/11/17 14:22:05;;;;;;;9.32;2.55;;;13.00;82.60;;;;;;5114065;28;20043;-77
2021/11/17 14:24:31;;;;;;;11.55;2.90;;;12.90;81.70;;;;;;5093051;28;20517;-76
2021/11/17 14:26:58;;;;;;;11.25;2.50;;;12.80;81.20;;;;;;5095659;28;20015;-77
2021/11/17 14:29:27;;;;;;;11.40;3.08;;;12.70;81.40;;;;;;5110911;28;20035;-76
2021/11/17 14:32:03;;;;;;;11.57;2.88;;;12.60;81.70;;;;;;5114094;28;20065;-74
2021/11/17 14:34:30;;;;;;;11.63;3.08;;;12.50;81.90;;;;;;5113912;28;20103;-76
2021/11/17 14:37:05;;;;;;;10.85;2.60;;;12.50;82.10;;;;;;5095924;28;20093;-76
2021/11/17 14:39:32;;;;;;;8.40;2.50;;;12.40;82.20;;;;;;5095713;28;20030;-76
2021/11/17 14:45:24;;;;;;;13.25;2.75;;;12.40;82.50;;;;;;5113891;28;20026;-74
2021/11/17 14:47:52;;;;;;;12.43;2.88;;;12.40;82.60;;;;;;5095599;28;20499;-75
2021/11/17 14:50:19;;;;;;;11.20;2.67;;;12.30;82.50;;;;;;5095236;28;20051;-75
2021/11/17 14:52:46;;;;;;;11.63;2.20;;;12.30;82.40;;;;;;5113731;28;20020;-75
2021/11/17 14:55:15;;;;;;;9.77;2.17;;;12.20;82.40;;;;;;5095401;28;20069;-76
2021/11/17 14:57:41;;;;;;;8.07;2.03;;;12.10;82.60;;;;;;5095370;28;20035;-74
2021/11/17 15:00:12;;;;;;;10.68;2.33;;;12.10;82.70;;;;;;5113671;28;20098;-77
2021/11/17 15:02:39;;;;;;;10.55;1.95;;;12.00;82.50;;;;;;5095214;28;20114;-76
2021/11/17 15:08:26;;;;;;;11.27;2.30;;;11.80;82.00;;;;;;5113189;28;20159;-75
2021/11/17 15:10:52;;;;;;;6.88;1.95;;;11.70;82.20;;;;;;5113319;28;20103;-75
2021/11/17 15:13:18;;;;;;;9.77;2.20;;;11.60;82.20;;;;;;5095013;28;20058;-74
2021/11/17 15:15:46;;;;;;;8.25;2.22;;;11.50;82.20;;;;;;5094841;28;20115;-75
2021/11/17 15:18:16;;;;;;;6.85;1.80;;;11.50;82.20;;;;;;5092128;28;20028;-74
2021/11/17 15:20:41;;;;;;;9.55;2.20;;;11.40;82.20;;;;;;5095313;28;20051;-75
2021/11/17 15:23:08;;;;;;;9.85;2.15;;;11.40;82.40;;;;;;5113164;28;20509;-74
2021/11/17 15:25:36;;;;;;;10.82;1.98;;;11.30;82.50;;;;;;5094983;28;20012;-73
2021/11/17 15:28:34;;;;;;;10.90;2.58;;;11.20;82.50;;;;;;5095000;28;20020;-74
2021/11/17 15:34:22;;;;;;;8.93;2.30;;;11.10;82.90;;;;;;5113557;28;20073;-75
2021/11/17 15:36:47;;;;;;;10.75;2.10;;;11.00;83.00;;;;;;5113554;28;20471;-73
2021/11/17 15:39:13;;;;;;;10.30;1.98;;;11.00;83.10;;;;;;5113266;28;20035;-74
2021/11/17 15:41:40;;;;;;;10.30;2.35;;;10.90;83.20;;;;;;5112902;28;20068;-74
2021/11/17 15:44:08;;;;;;;13.85;2.25;;;10.90;83.20;;;;;;5094943;28;20104;-75
2021/11/17 15:46:37;;;;;;;10.05;2.40;;;10.80;83.30;;;;;;5092016;28;20020;-75
2021/11/17 15:49:05;;;;;;;11.13;2.47;;;10.80;83.40;;;;;;5094772;28;20065;-74
2021/11/17 15:51:38;;;;;;;9.43;1.80;;;10.80;83.40;;;;;;5112794;28;20024;-74
2021/11/17 15:54:04;;;;;;;7.85;2.00;;;10.70;83.50;;;;;;5094794;28;20026;-75
2021/11/17 15:56:32;;;;;;;11.02;2.10;;;10.70;83.50;;;;;;5094733;28;20012;-75
2021/11/17 15:58:58;;;;;;;12.07;1.90;;;10.60;83.60;;;;;;5094780;28;20490;-74
2021/11/17 16:01:24;;;;;;;11.18;1.83;;;10.60;83.70;;;;;;5094721;28;20012;-75
2021/11/17 16:03:54;;;;;;;10.18;2.17;;;10.60;83.80;;;;;;5094678;28;20043;-74
2021/11/17 16:06:22;;;;;;;9.88;2.33;;;10.50;83.80;;;;;;5094553;28;20050;-74
2021/11/17 16:08:47;;;;;;;8.10;1.83;;;10.50;83.90;;;;;;5094719;28;20089;-75
2021/11/17 16:11:13;;;;;;;11.57;2.20;;;10.40;83.90;;;;;;5094613;28;20507;-75
2021/11/17 16:13:39;;;;;;;6.80;1.83;;;10.40;84.00;;;;;;5094465;28;20065;-74
2021/11/17 16:16:05;;;;;;;11.05;2.25;;;10.30;84.00;;;;;;5094534;28;20051;-74
2021/11/17 16:18:32;;;;;;;11.07;2.10;;;10.30;84.00;;;;;;5095789;28;20031;-74
2021/11/17 16:21:02;;;;;;;6.80;1.70;;;10.30;84.10;;;;;;5116544;28;20387;-75
2021/11/17 16:26:52;;;;;;;10.48;2.15;;;10.20;84.10;;;;;;5116772;28;20039;-75
2021/11/17 16:29:18;;;;;;;9.80;2.40;;;10.10;84.10;;;;;;5097679;28;20031;-75
2021/11/17 16:31:44;;;;;;;9.15;3.30;;;10.10;84.30;;;;;;5097730;28;20016;-75
2021/11/17 16:34:10;;;;;;;10.77;3.60;;;10.00;84.30;;;;;;5116241;28;20528;-75
2021/11/17 16:36:40;;;;;;;7.10;3.38;;;10.00;84.40;;;;;;5095169;28;20032;-75
2021/11/17 16:39:08;;;;;;;12.05;3.70;;;10.00;84.50;;;;;;5097756;28;20023;-74
2021/11/17 16:41:34;;;;;;;10.23;2.90;;;9.90;84.50;;;;;;5097790;28;20016;-75
2021/11/17 16:44:01;;;;;;;9.50;3.33;;;9.90;84.50;;;;;;5097619;28;20059;-76
2021/11/17 16:46:27;;;;;;;11.40;4.43;;;9.90;84.70;;;;;;5094784;28;20032;-75
2021/11/17 16:48:53;;;;;;;14.43;3.85;;;9.80;84.80;;;;;;5097426;28;20030;-78